createdAt,value
2019-01-31T00:00:30.124Z,81.74
2019-01-31T00:03:11.975Z,81.86
2019-01-31T00:06:06.504Z,81.90
2019-01-31T00:08:46.217Z,81.71
2019-01-31T00:11:26.341Z,81.52
2019-01-31T00:14:02.497Z,81.36
2019-01-31T00:16:50.120Z,81.23
2019-01-31T00:19:26.132Z,81.14
2019-01-31T00:22:07.452Z,81.36
2019-01-31T00:24:42.927Z,82.08
2019-01-31T00:27:24.769Z,82.14
2019-01-31T00:30:00.251Z,81.76
2019-01-31T00:32:46.359Z,81.76
2019-01-31T00:35:57.233Z,81.82
2019-01-31T00:38:35.410Z,82.15
2019-01-31T00:41:31.167Z,82.04
2019-01-31T00:44:32.030Z,82.04
2019-01-31T00:47:16.765Z,81.89
2019-01-31T00:50:10.351Z,81.79
2019-01-31T00:52:48.938Z,81.96
2019-01-31T00:55:27.324Z,81.83
2019-01-31T00:58:21.398Z,82.08
2019-01-31T01:01:03.903Z,82.36
2019-01-31T01:03:59.705Z,82.55
2019-01-31T01:06:37.781Z,82.38
2019-01-31T01:09:37.884Z,82.30
2019-01-31T01:12:19.224Z,82.03
2019-01-31T01:15:20.539Z,81.67
2019-01-31T01:18:01.382Z,81.71
2019-01-31T01:20:57.674Z,81.56
2019-01-31T01:23:36.404Z,81.54
2019-01-31T01:26:28.215Z,81.46
2019-01-31T01:29:11.392Z,81.87
2019-01-31T01:31:53.169Z,82.25
2019-01-31T01:35:01.447Z,82.58
2019-01-31T01:37:44.080Z,82.63
2019-01-31T01:40:31.885Z,82.14
2019-01-31T01:43:13.545Z,82.08
2019-01-31T01:46:00.890Z,82.08
2019-01-31T01:48:46.405Z,82.38
2019-01-31T01:51:24.695Z,82.90
2019-01-31T01:54:30.870Z,82.85
2019-01-31T01:57:30.677Z,82.71
2019-01-31T02:00:06.244Z,82.49
2019-01-31T02:03:00.883Z,82.43
2019-01-31T02:05:52.848Z,82.21
2019-01-31T02:08:53.627Z,82.73
2019-01-31T02:11:41.238Z,83.43
2019-01-31T02:14:33.230Z,83.68
2019-01-31T02:17:11.891Z,82.97
2019-01-31T02:19:52.746Z,82.78
2019-01-31T02:22:33.890Z,83.22
2019-01-31T02:25:16.514Z,84.24
2019-01-31T02:28:04.033Z,84.94
2019-01-31T02:30:45.033Z,85.51
2019-01-31T02:33:32.361Z,86.22
2019-01-31T02:36:19.747Z,86.31
2019-01-31T02:39:18.969Z,86.27
2019-01-31T02:42:00.500Z,86.08
2019-01-31T02:45:04.556Z,86.11
2019-01-31T02:47:49.130Z,85.64
2019-01-31T02:50:30.610Z,84.58
2019-01-31T02:53:16.540Z,84.23
2019-01-31T02:56:13.391Z,83.89
2019-01-31T02:59:02.488Z,83.24
2019-01-31T03:02:05.773Z,83.50
2019-01-31T03:04:43.963Z,83.25
2019-01-31T03:07:36.078Z,83.03
2019-01-31T03:10:34.030Z,82.74
2019-01-31T03:13:15.008Z,82.77
2019-01-31T03:16:16.081Z,82.91
2019-01-31T03:18:54.118Z,83.29
2019-01-31T03:21:57.626Z,82.35
2019-01-31T03:24:35.872Z,82.45
2019-01-31T03:27:23.477Z,82.43
2019-01-31T03:30:28.940Z,82.13
2019-01-31T03:33:09.983Z,82.06
2019-01-31T03:35:51.343Z,82.31
2019-01-31T03:38:31.908Z,82.56
2019-01-31T03:41:10.118Z,82.53
2019-01-31T03:43:54.345Z,82.81
2019-01-31T03:46:50.102Z,82.93
2019-01-31T03:49:46.410Z,83.24
2019-01-31T03:52:49.065Z,83.10
2019-01-31T03:55:36.606Z,83.71
2019-01-31T03:58:23.465Z,84.80
2019-01-31T04:01:11.009Z,84.41
2019-01-31T04:03:50.673Z,83.03
2019-01-31T04:06:26.964Z,83.55
2019-01-31T04:08:59.405Z,83.29
2019-01-31T04:11:29.149Z,83.85
2019-01-31T04:14:01.523Z,83.96
2019-01-31T04:16:31.282Z,84.50
2019-01-31T04:19:01.002Z,84.24
2019-01-31T04:21:30.926Z,83.58
2019-01-31T04:24:00.837Z,82.95
2019-01-31T04:26:31.058Z,83.08
2019-01-31T04:29:00.853Z,83.50
2019-01-31T04:31:33.230Z,83.75
2019-01-31T04:34:05.725Z,84.33
2019-01-31T04:36:38.632Z,83.56
2019-01-31T04:39:09.563Z,83.52
2019-01-31T04:41:42.026Z,84.10
2019-01-31T04:44:11.986Z,85.58
2019-01-31T04:46:44.421Z,85.52
2019-01-31T04:49:14.208Z,84.76
2019-01-31T04:51:43.982Z,84.97
2019-01-31T04:54:13.804Z,86.26
2019-01-31T04:56:46.319Z,87.20
2019-01-31T04:59:16.134Z,87.67
2019-01-31T05:01:46.019Z,88.54
2019-01-31T05:04:15.951Z,88.65
2019-01-31T05:06:45.757Z,89.15
2019-01-31T05:09:15.551Z,89.17
2019-01-31T05:11:45.466Z,89.35
2019-01-31T05:14:15.637Z,89.37
2019-01-31T05:16:45.607Z,89.28
2019-01-31T05:19:15.664Z,88.99
2019-01-31T05:21:45.520Z,88.48
2019-01-31T05:24:15.277Z,88.78
2019-01-31T05:26:45.089Z,89.21
2019-01-31T05:29:14.909Z,89.46
2019-01-31T05:31:44.839Z,89.63
2019-01-31T05:34:14.629Z,89.47
2019-01-31T05:36:44.524Z,89.28
2019-01-31T05:39:14.350Z,88.55
2019-01-31T05:41:44.243Z,88.03
2019-01-31T05:44:14.218Z,87.36
2019-01-31T05:46:44.027Z,88.32
2019-01-31T05:49:16.506Z,93.93
2019-01-31T05:51:46.322Z,90.11
2019-01-31T05:54:16.089Z,84.31
2019-01-31T05:56:45.862Z,80.77
2019-01-31T05:59:15.655Z,77.30
2019-01-31T06:01:45.384Z,76.14
2019-01-31T06:04:15.214Z,76.14
2019-01-31T06:06:44.986Z,78.90
2019-01-31T06:09:14.765Z,82.50
2019-01-31T06:11:44.547Z,82.50
2019-01-31T06:14:14.333Z,83.77
2019-01-31T06:16:44.153Z,83.77
2019-01-31T06:19:13.952Z,84.16
2019-01-31T06:21:43.738Z,84.76
2019-01-31T06:24:13.448Z,84.85
2019-01-31T06:26:43.179Z,84.98
2019-01-31T06:29:13.521Z,85.12
2019-01-31T06:31:43.272Z,85.14
2019-01-31T06:34:13.107Z,85.57
2019-01-31T06:36:42.894Z,85.70
2019-01-31T06:39:12.580Z,85.87
2019-01-31T06:41:42.385Z,85.44
2019-01-31T06:44:12.263Z,84.66
2019-01-31T06:46:41.885Z,85.27
2019-01-31T06:49:11.704Z,85.64
2019-01-31T06:51:41.490Z,85.68
2019-01-31T06:54:11.301Z,85.77
2019-01-31T06:56:40.989Z,85.63
2019-01-31T06:59:10.695Z,85.42
2019-01-31T07:01:40.546Z,85.42
2019-01-31T07:04:11.124Z,89.02
2019-01-31T07:06:41.065Z,84.09
2019-01-31T07:09:10.891Z,83.76
2019-01-31T07:11:40.983Z,83.57
2019-01-31T07:14:10.673Z,83.69
2019-01-31T07:16:40.384Z,83.74
2019-01-31T07:19:10.065Z,83.49
2019-01-31T07:21:39.853Z,82.43
2019-01-31T07:24:09.550Z,82.28
2019-01-31T07:26:41.448Z,82.08
2019-01-31T07:29:12.291Z,82.22
2019-01-31T07:31:42.042Z,82.24
2019-01-31T07:34:11.888Z,82.15
2019-01-31T07:36:41.563Z,82.03
2019-01-31T07:39:11.262Z,81.74
2019-01-31T07:41:41.791Z,81.39
2019-01-31T07:44:11.719Z,81.07
2019-01-31T07:46:41.521Z,80.71
2019-01-31T07:49:11.219Z,80.63
2019-01-31T07:51:42.653Z,80.33
2019-01-31T07:54:12.430Z,80.25
2019-01-31T07:56:42.231Z,80.48
2019-01-31T07:59:12.097Z,80.28
2019-01-31T08:01:41.897Z,80.11
2019-01-31T08:04:11.700Z,80.16
2019-01-31T08:06:41.546Z,79.75
2019-01-31T08:09:11.272Z,78.80
2019-01-31T08:11:52.127Z,78.92
2019-01-31T08:14:12.545Z,78.93
2019-01-31T08:16:42.326Z,78.76
2019-01-31T08:19:12.346Z,78.77
2019-01-31T08:21:42.124Z,78.54
2019-01-31T08:24:11.990Z,78.91
2019-01-31T08:26:41.815Z,79.02
2019-01-31T08:29:11.632Z,78.45
2019-01-31T08:31:41.501Z,78.05
2019-01-31T08:34:11.349Z,77.95
2019-01-31T08:36:41.186Z,77.94
2019-01-31T08:39:10.980Z,78.60
2019-01-31T08:41:40.752Z,79.37
2019-01-31T08:44:10.718Z,80.09
2019-01-31T08:46:40.566Z,80.26
2019-01-31T08:49:10.318Z,80.56
2019-01-31T08:51:40.108Z,81.17
2019-01-31T08:54:09.906Z,80.91
2019-01-31T08:56:39.696Z,80.16
2019-01-31T08:59:09.584Z,79.56
2019-01-31T09:01:39.397Z,79.74
2019-01-31T09:04:09.226Z,79.79
2019-01-31T09:06:39.030Z,79.39
2019-01-31T09:09:10.329Z,78.82
2019-01-31T09:11:40.142Z,78.35
2019-01-31T09:14:09.962Z,77.63
2019-01-31T09:16:39.815Z,77.35
2019-01-31T09:19:09.596Z,76.81
2019-01-31T09:21:40.507Z,76.61
2019-01-31T09:24:15.850Z,76.64
2019-01-31T09:27:22.004Z,76.23
2019-01-31T09:30:16.000Z,75.79
2019-01-31T09:32:54.967Z,76.28
2019-01-31T09:35:33.753Z,76.23
2019-01-31T09:38:28.133Z,76.96
2019-01-31T09:41:08.513Z,76.96
2019-01-31T09:43:44.104Z,77.05
2019-01-31T09:46:33.645Z,77.38
2019-01-31T09:49:26.842Z,77.79
2019-01-31T09:52:09.322Z,77.71
2019-01-31T09:54:42.227Z,77.79
2019-01-31T09:57:31.226Z,77.08
2019-01-31T10:00:13.755Z,77.08
2019-01-31T10:03:06.153Z,76.43
2019-01-31T10:06:05.501Z,75.65
2019-01-31T10:08:46.806Z,75.65
2019-01-31T10:11:42.342Z,75.52
2019-01-31T10:14:24.329Z,75.43
2019-01-31T10:16:59.892Z,75.02
2019-01-31T10:19:56.662Z,74.89
2019-01-31T10:22:43.111Z,74.89
2019-01-31T10:25:16.634Z,74.78
2019-01-31T10:28:04.564Z,79.17
2019-01-31T10:30:55.514Z,74.36
2019-01-31T10:33:44.698Z,74.93
2019-01-31T10:36:34.229Z,74.16
2019-01-31T10:39:18.913Z,72.85
2019-01-31T10:42:15.928Z,73.01
2019-01-31T10:44:48.765Z,72.78
2019-01-31T10:47:24.749Z,72.44
2019-01-31T10:50:00.599Z,72.53
2019-01-31T10:52:36.334Z,72.81
2019-01-31T10:55:24.346Z,72.11
2019-01-31T10:58:02.999Z,72.11
2019-01-31T11:00:35.967Z,72.01
2019-01-31T11:03:28.442Z,72.01
2019-01-31T11:06:10.384Z,71.53
2019-01-31T11:08:55.236Z,71.50
2019-01-31T11:11:31.112Z,71.56
2019-01-31T11:14:23.363Z,71.27
2019-01-31T11:17:15.751Z,71.22
2019-01-31T11:19:51.469Z,71.26
2019-01-31T11:22:27.085Z,71.26
2019-01-31T11:25:27.475Z,71.33
2019-01-31T11:28:28.967Z,71.22
2019-01-31T11:31:10.894Z,77.77
2019-01-31T11:34:00.201Z,72.29
2019-01-31T11:36:47.670Z,71.30
2019-01-31T11:39:32.363Z,71.23
2019-01-31T11:42:21.686Z,70.71
2019-01-31T11:45:11.125Z,70.77
2019-01-31T11:47:56.085Z,71.28
2019-01-31T11:50:50.172Z,71.34
2019-01-31T11:53:41.081Z,71.60
2019-01-31T11:56:31.782Z,71.61
2019-01-31T11:59:04.043Z,72.15
2019-01-31T12:01:33.766Z,71.90
2019-01-31T12:04:05.959Z,71.87
2019-01-31T12:06:35.783Z,71.87
2019-01-31T12:09:10.580Z,71.42
2019-01-31T12:11:40.346Z,71.49
2019-01-31T12:14:10.171Z,71.37
2019-01-31T12:16:39.941Z,74.31
2019-01-31T12:19:09.764Z,71.61
2019-01-31T12:21:39.626Z,70.11
2019-01-31T12:24:16.053Z,69.96
2019-01-31T12:26:41.036Z,69.79
2019-01-31T12:29:10.821Z,69.22
2019-01-31T12:31:40.597Z,69.73
2019-01-31T12:34:10.437Z,69.42
2019-01-31T12:36:40.238Z,70.50
2019-01-31T12:39:10.480Z,70.74
2019-01-31T12:41:40.323Z,72.02
2019-01-31T12:44:10.199Z,71.04
2019-01-31T12:46:40.043Z,70.30
2019-01-31T12:49:09.826Z,68.79
2019-01-31T12:51:39.587Z,68.13
2019-01-31T12:54:09.399Z,68.35
2019-01-31T12:56:39.147Z,68.02
2019-01-31T12:59:08.987Z,68.34
2019-01-31T13:01:38.706Z,68.29
2019-01-31T13:04:08.474Z,67.72
2019-01-31T13:06:38.360Z,67.42
2019-01-31T13:09:09.395Z,67.83
2019-01-31T13:11:39.570Z,69.87
2019-01-31T13:14:09.434Z,71.62
2019-01-31T13:16:39.193Z,68.77
2019-01-31T13:19:08.984Z,68.77
2019-01-31T13:21:38.783Z,68.90
2019-01-31T13:24:08.598Z,68.70
2019-01-31T13:26:38.368Z,68.96
2019-01-31T13:29:08.142Z,68.75
2019-01-31T13:31:37.927Z,69.47
2019-01-31T13:34:07.747Z,69.72
2019-01-31T13:36:37.601Z,70.10
2019-01-31T13:39:09.627Z,70.56
2019-01-31T13:41:41.821Z,71.10
2019-01-31T13:44:10.899Z,71.26
2019-01-31T13:46:40.807Z,71.27
2019-01-31T13:49:10.728Z,71.29
2019-01-31T13:51:40.520Z,71.33
2019-01-31T13:54:10.348Z,71.13
2019-01-31T13:56:45.743Z,71.09
2019-01-31T13:59:11.662Z,71.02
2019-01-31T14:01:41.449Z,71.21
2019-01-31T14:04:11.259Z,71.60
2019-01-31T14:06:41.013Z,71.92
2019-01-31T14:09:10.809Z,72.23
2019-01-31T14:11:40.630Z,72.40
2019-01-31T14:14:10.426Z,72.61
2019-01-31T14:16:47.264Z,73.26
2019-01-31T14:19:11.734Z,73.21
2019-01-31T14:21:44.091Z,73.42
2019-01-31T14:24:13.025Z,73.62
2019-01-31T14:26:42.841Z,73.54
2019-01-31T14:29:12.613Z,73.78
2019-01-31T14:31:42.408Z,74.03
2019-01-31T14:34:12.323Z,80.19
2019-01-31T14:36:42.089Z,77.24
2019-01-31T14:39:12.002Z,74.91
2019-01-31T14:41:41.814Z,74.91
2019-01-31T14:44:20.215Z,76.15
2019-01-31T14:46:43.141Z,76.15
2019-01-31T14:49:12.946Z,76.71
2019-01-31T14:51:42.698Z,77.20
2019-01-31T14:54:12.540Z,77.68
2019-01-31T14:56:42.685Z,78.15
2019-01-31T14:59:12.488Z,79.01
2019-01-31T15:01:42.326Z,79.70
2019-01-31T15:04:12.226Z,79.50
2019-01-31T15:06:42.022Z,79.50
2019-01-31T15:09:11.773Z,79.61
2019-01-31T15:11:41.584Z,79.47
2019-01-31T15:14:11.330Z,79.26
2019-01-31T15:16:41.103Z,79.21
2019-01-31T15:19:10.957Z,79.35
2019-01-31T15:21:40.699Z,79.62
2019-01-31T15:24:10.553Z,79.68
2019-01-31T15:26:40.412Z,79.47
2019-01-31T15:29:10.180Z,79.73
2019-01-31T15:31:39.933Z,79.65
2019-01-31T15:34:09.699Z,79.79
2019-01-31T15:36:39.568Z,79.45
2019-01-31T15:39:09.428Z,79.49
2019-01-31T15:41:39.263Z,79.54
2019-01-31T15:44:09.128Z,79.87
2019-01-31T15:46:39.032Z,80.09
2019-01-31T15:49:08.865Z,80.33
2019-01-31T15:51:38.806Z,80.50
2019-01-31T15:54:08.923Z,80.77
2019-01-31T15:56:38.858Z,81.13
2019-01-31T15:59:09.393Z,81.12
2019-01-31T16:01:39.193Z,81.87
2019-01-31T16:04:09.042Z,83.50
2019-01-31T16:06:38.917Z,81.50
2019-01-31T16:09:09.459Z,81.16
2019-01-31T16:11:39.232Z,81.42
2019-01-31T16:14:09.190Z,81.51
2019-01-31T16:16:39.042Z,81.79
2019-01-31T16:19:08.826Z,81.76
2019-01-31T16:21:38.648Z,81.81
2019-01-31T16:24:08.522Z,81.83
2019-01-31T16:26:38.383Z,81.75
2019-01-31T16:29:08.206Z,81.89
2019-01-31T16:31:38.239Z,82.10
2019-01-31T16:34:08.204Z,82.38
2019-01-31T16:36:38.014Z,82.79
2019-01-31T16:39:08.808Z,82.79
2019-01-31T16:41:38.644Z,82.52
2019-01-31T16:44:09.068Z,82.60
2019-01-31T16:46:38.885Z,82.43
2019-01-31T16:49:08.628Z,82.45
2019-01-31T16:51:38.434Z,82.40
2019-01-31T16:54:08.365Z,82.54
2019-01-31T16:56:38.280Z,82.51
2019-01-31T16:59:08.224Z,82.62
2019-01-31T17:01:38.012Z,82.53
2019-01-31T17:04:07.867Z,82.67
2019-01-31T17:06:37.709Z,82.67
2019-01-31T17:09:08.809Z,82.56
2019-01-31T17:11:38.632Z,82.64
2019-01-31T17:14:08.413Z,82.82
2019-01-31T17:16:38.253Z,82.67
2019-01-31T17:19:08.033Z,82.32
2019-01-31T17:21:38.013Z,83.37
2019-01-31T17:24:08.573Z,87.24
2019-01-31T17:26:38.351Z,83.40
2019-01-31T17:29:08.159Z,82.22
2019-01-31T17:31:37.977Z,80.93
2019-01-31T17:34:07.952Z,81.61
2019-01-31T17:36:37.833Z,82.23
2019-01-31T17:39:08.709Z,82.06
2019-01-31T17:41:38.623Z,82.12
2019-01-31T17:44:08.460Z,82.72
2019-01-31T17:46:38.461Z,82.88
2019-01-31T17:49:08.326Z,82.73
2019-01-31T17:51:38.188Z,82.46
2019-01-31T17:54:07.984Z,82.17
2019-01-31T17:56:37.834Z,81.49
2019-01-31T17:59:07.695Z,81.49
2019-01-31T18:01:37.687Z,81.21
2019-01-31T18:04:07.618Z,81.30
2019-01-31T18:06:37.528Z,81.04
2019-01-31T18:09:09.126Z,81.31
2019-01-31T18:11:38.948Z,81.71
2019-01-31T18:14:08.896Z,81.71
2019-01-31T18:16:38.671Z,81.84
2019-01-31T18:19:08.485Z,81.89
2019-01-31T18:21:38.286Z,81.89
2019-01-31T18:24:08.194Z,82.22
2019-01-31T18:26:38.024Z,82.35
2019-01-31T18:29:07.745Z,82.39
2019-01-31T18:31:37.604Z,82.39
2019-01-31T18:34:07.402Z,82.43
2019-01-31T18:36:37.239Z,82.29
2019-01-31T18:39:08.666Z,82.56
2019-01-31T18:41:38.466Z,82.54
2019-01-31T18:44:11.138Z,82.67
2019-01-31T18:46:41.253Z,82.59
2019-01-31T18:49:11.124Z,82.69
2019-01-31T18:51:41.039Z,82.67
2019-01-31T18:54:12.460Z,82.65
2019-01-31T18:56:42.371Z,82.99
2019-01-31T18:59:12.241Z,82.99
2019-01-31T19:01:42.193Z,82.43
2019-01-31T19:04:12.004Z,82.29
2019-01-31T19:06:41.833Z,82.26
2019-01-31T19:09:11.717Z,82.41
2019-01-31T19:11:41.558Z,82.15
2019-01-31T19:14:14.289Z,82.36
2019-01-31T19:16:42.887Z,81.90
2019-01-31T19:19:12.858Z,82.37
2019-01-31T19:21:42.693Z,82.37
2019-01-31T19:24:12.639Z,83.08
2019-01-31T19:26:42.523Z,83.11
2019-01-31T19:29:12.391Z,83.25
2019-01-31T19:31:42.329Z,83.26
2019-01-31T19:34:12.245Z,83.19
2019-01-31T19:36:42.072Z,83.08
2019-01-31T19:39:13.492Z,82.97
2019-01-31T19:41:43.423Z,82.96
2019-01-31T19:44:13.245Z,82.96
2019-01-31T19:46:43.083Z,82.99
2019-01-31T19:49:12.945Z,82.58
2019-01-31T19:51:43.534Z,82.58
2019-01-31T19:54:13.411Z,82.99
2019-01-31T19:56:43.233Z,82.94
2019-01-31T19:59:13.117Z,82.84
2019-01-31T20:01:43.091Z,82.87
2019-01-31T20:04:13.073Z,84.33
2019-01-31T20:06:42.891Z,83.34
2019-01-31T20:09:14.248Z,81.93
2019-01-31T20:11:44.090Z,82.22
2019-01-31T20:14:13.918Z,81.93
2019-01-31T20:16:43.752Z,82.28
2019-01-31T20:19:13.562Z,82.86
2019-01-31T20:21:43.421Z,83.36
2019-01-31T20:24:13.174Z,83.39
2019-01-31T20:26:42.994Z,83.13
2019-01-31T20:29:12.954Z,83.13
2019-01-31T20:31:42.722Z,83.14
2019-01-31T20:34:12.518Z,83.12
2019-01-31T20:36:42.321Z,83.08
2019-01-31T20:39:12.152Z,83.10
2019-01-31T20:41:53.477Z,83.23
2019-01-31T20:44:13.521Z,83.21
2019-01-31T20:46:43.353Z,83.12
2019-01-31T20:49:13.173Z,83.45
2019-01-31T20:51:43.133Z,83.45
2019-01-31T20:54:12.890Z,83.19
2019-01-31T20:56:42.614Z,83.62
2019-01-31T20:59:12.482Z,83.71
2019-01-31T21:01:42.327Z,83.71
2019-01-31T21:04:12.192Z,83.92
2019-01-31T21:06:42.072Z,83.91
2019-01-31T21:09:11.965Z,83.92
2019-01-31T21:11:41.740Z,83.87
2019-01-31T21:14:11.714Z,83.68
2019-01-31T21:16:51.282Z,83.57
2019-01-31T21:19:13.202Z,82.48
2019-01-31T21:21:43.004Z,82.48
2019-01-31T21:24:12.798Z,82.09
2019-01-31T21:26:42.618Z,82.32
2019-01-31T21:29:12.624Z,82.28
2019-01-31T21:31:42.448Z,82.33
2019-01-31T21:34:12.239Z,82.33
2019-01-31T21:36:42.058Z,81.99
2019-01-31T21:39:11.984Z,81.98
2019-01-31T21:41:41.802Z,82.06
2019-01-31T21:44:11.593Z,81.83
2019-01-31T21:46:41.400Z,81.83
2019-01-31T21:49:11.201Z,81.35
2019-01-31T21:51:41.043Z,81.17
2019-01-31T21:54:11.015Z,80.84
2019-01-31T21:56:40.789Z,80.88
2019-01-31T21:59:10.548Z,80.88
2019-01-31T22:01:40.333Z,80.90
2019-01-31T22:04:10.293Z,80.96
2019-01-31T22:06:40.086Z,81.08
2019-01-31T22:09:09.887Z,81.08
2019-01-31T22:11:39.640Z,81.42
2019-01-31T22:14:10.389Z,81.51
2019-01-31T22:16:40.162Z,81.37
2019-01-31T22:19:09.996Z,81.46
2019-01-31T22:21:39.772Z,81.39
2019-01-31T22:24:09.524Z,81.16
2019-01-31T22:26:39.332Z,80.90
2019-01-31T22:29:09.147Z,80.70
2019-01-31T22:31:39.001Z,80.07
2019-01-31T22:34:08.811Z,79.67
2019-01-31T22:36:38.569Z,79.33
2019-01-31T22:39:08.805Z,79.12
2019-01-31T22:41:38.572Z,79.12
2019-01-31T22:44:08.383Z,78.94
2019-01-31T22:46:38.202Z,78.28
2019-01-31T22:49:07.981Z,79.34
2019-01-31T22:51:37.792Z,79.34
2019-01-31T22:54:07.727Z,78.14
2019-01-31T22:56:37.492Z,77.80
2019-01-31T22:59:07.269Z,78.77
2019-01-31T23:01:38.544Z,79.40
2019-01-31T23:04:08.289Z,80.19
2019-01-31T23:06:38.110Z,80.22
2019-01-31T23:09:08.705Z,80.22
2019-01-31T23:11:38.532Z,80.26
2019-01-31T23:14:08.282Z,80.03
2019-01-31T23:16:38.094Z,80.34
2019-01-31T23:19:08.946Z,80.19
2019-01-31T23:21:38.692Z,79.94
2019-01-31T23:24:08.506Z,79.19
2019-01-31T23:26:38.326Z,79.22
2019-01-31T23:29:08.084Z,79.53
2019-01-31T23:31:37.892Z,79.33
2019-01-31T23:34:07.721Z,79.33
2019-01-31T23:36:37.583Z,79.38
2019-01-31T23:39:08.900Z,79.46
2019-01-31T23:41:38.701Z,79.46
2019-01-31T23:44:08.491Z,78.89
2019-01-31T23:46:38.293Z,78.43
2019-01-31T23:49:08.161Z,78.43
2019-01-31T23:51:37.925Z,78.78
2019-01-31T23:54:07.732Z,78.78
2019-01-31T23:56:37.516Z,80.16
2019-01-31T23:59:07.313Z,80.16
